Time;durP1;ratioP1;P1;durP2;ratioP2;P2;SDS_P1;SDS_P2;PMS_P1;PMS_P2;Temp;Humidity;BMP_temperature;BMP_pressure;BME280_temperature;BME280_humidity;BME280_pressure;Samples;Min_cycle;Max_cycle;Signal;HPM_P1;HPM_P2
2022/08/23 00:01:19;;;;;;;31.52;25.05;;;;;;;23.24;50.81;100512.56;5023475;28;20025;-55
2022/08/23 00:03:45;;;;;;;29.00;24.63;;;;;;;23.22;50.30;100517.06;5023504;28;20037;-55
2022/08/23 00:06:11;;;;;;;31.80;25.13;;;;;;;23.20;50.41;100515.44;5023208;28;20040;-55
2022/08/23 00:08:37;;;;;;;29.00;24.77;;;;;;;23.11;50.72;100508.94;5033740;28;20018;-55
2022/08/23 00:11:04;;;;;;;29.58;24.27;;;;;;;23.16;50.85;100522.75;5042817;28;20093;-55
2022/08/23 00:13:31;;;;;;;31.00;24.83;;;;;;;23.15;51.20;100512.25;5042827;28;20045;-55
2022/08/23 00:15:57;;;;;;;30.33;24.25;;;;;;;23.12;51.38;100521.22;5046862;28;20034;-55
2022/08/23 00:18:23;;;;;;;35.95;25.60;;;;;;;23.08;51.13;100517.03;5033124;28;20029;-55
2022/08/23 00:20:50;;;;;;;30.65;24.52;;;;;;;23.08;51.13;100522.31;5027177;28;20210;-55
2022/08/23 00:23:16;;;;;;;32.58;25.80;;;;;;;23.04;51.50;100519.00;5027229;28;20084;-54
2022/08/23 00:25:41;;;;;;;34.72;26.38;;;;;;;23.04;51.71;100515.50;5029317;28;20037;-54
2022/08/23 00:28:08;;;;;;;29.80;24.23;;;;;;;23.00;51.48;100517.50;5046259;28;20097;-54
2022/08/23 00:30:35;;;;;;;32.15;25.13;;;;;;;22.95;51.81;100519.56;5046508;28;20029;-54
2022/08/23 00:33:00;;;;;;;29.55;24.13;;;;;;;22.90;51.95;100521.63;5046567;28;20052;-54
2022/08/23 00:35:26;;;;;;;28.65;25.25;;;;;;;22.85;52.07;100516.59;5046450;28;20025;-53
2022/08/23 00:37:53;;;;;;;34.85;25.65;;;;;;;22.84;52.40;100520.19;5041225;28;20093;-53
2022/08/23 00:40:19;;;;;;;34.17;26.25;;;;;;;22.75;52.47;100518.09;5026545;28;20360;-54
2022/08/23 00:49:20;;;;;;;32.17;25.55;;;;;;;22.62;52.92;100511.81;5005241;28;20034;-54
2022/08/23 00:52:00;;;;;;;34.60;26.77;;;;;;;22.56;53.08;100520.94;5040691;28;20314;-54
2022/08/23 00:54:28;;;;;;;31.88;26.17;;;;;;;22.31;53.20;100481.91;5030878;28;20088;-54
2022/08/23 00:56:57;;;;;;;32.67;26.42;;;;;;;22.59;53.21;100531.34;5033677;28;20053;-55
2022/08/23 00:59:23;;;;;;;38.90;29.45;;;;;;;22.45;53.03;100537.44;5026314;28;20222;-54
2022/08/23 01:01:49;;;;;;;31.25;26.75;;;;;;;22.50;53.47;100535.38;5039255;28;20032;-54
2022/08/23 01:04:16;;;;;;;35.13;27.13;;;;;;;22.44;53.09;100524.31;5046054;28;20021;-54
2022/08/23 01:07:00;;;;;;;31.27;26.38;;;;;;;22.43;53.73;100534.00;5064369;28;20025;-55
2022/08/23 01:09:26;;;;;;;32.63;26.33;;;;;;;22.45;53.54;100537.44;5032227;28;20029;-55
2022/08/23 01:12:05;;;;;;;33.05;28.08;;;;;;;22.10;53.74;100495.38;5050285;28;20210;-54
2022/08/23 01:14:46;;;;;;;32.53;26.77;;;;;;;22.39;54.23;100543.06;5062329;28;20033;-54
2022/08/23 01:17:17;;;;;;;35.80;27.02;;;;;;;22.31;54.21;100537.34;5048159;28;20056;-54
2022/08/23 01:19:50;;;;;;;34.95;26.73;;;;;;;22.36;54.27;100552.00;5048391;28;20036;-54
2022/08/23 01:22:21;;;;;;;35.35;28.35;;;;;;;22.28;54.27;100534.88;5065867;28;20025;-54
2022/08/23 01:24:47;;;;;;;34.30;27.52;;;;;;;22.29;53.87;100548.00;5060459;28;20187;-55
2022/08/23 01:27:13;;;;;;;36.15;27.55;;;;;;;22.30;54.26;100544.38;5060542;28;20020;-55
2022/08/23 01:29:40;;;;;;;34.90;27.05;;;;;;;22.26;54.25;100548.16;5044948;28;20093;-54
2022/08/23 01:32:08;;;;;;;37.92;27.67;;;;;;;22.23;54.27;100558.88;5025581;28;20037;-56
2022/08/23 01:34:35;;;;;;;31.63;25.02;;;;;;;22.24;54.67;100558.78;5025705;28;20042;-55
2022/08/23 01:37:07;;;;;;;33.15;26.73;;;;;;;21.86;55.39;100509.03;5025687;28;20139;-55
2022/08/23 01:39:33;;;;;;;34.80;26.73;;;;;;;22.18;55.31;100558.28;5042946;28;20275;-56
2022/08/23 01:41:59;;;;;;;34.67;27.38;;;;;;;22.15;54.71;100551.41;5058178;28;20083;-55
2022/08/23 01:44:25;;;;;;;36.55;29.27;;;;;;;22.12;55.20;100571.81;5063374;28;20095;-56
2022/08/23 01:46:51;;;;;;;41.38;28.95;;;;;;;22.00;54.91;100555.72;5065289;28;20091;-55
2022/08/23 01:49:17;;;;;;;35.22;28.17;;;;;;;22.03;55.26;100552.94;5065245;28;20384;-56
2022/08/23 01:51:43;;;;;;;35.47;28.48;;;;;;;22.00;55.46;100571.53;5045890;28;20085;-56
2022/08/23 01:54:09;;;;;;;32.25;26.92;;;;;;;21.98;55.76;100567.31;5045013;28;20040;-55
2022/08/23 01:56:36;;;;;;;37.75;28.33;;;;;;;21.96;55.37;100566.53;5045128;28;20323;-56
2022/08/23 01:59:03;;;;;;;33.70;29.58;;;;;;;21.88;55.46;100564.31;5039988;28;20025;-55
2022/08/23 02:01:29;;;;;;;36.47;27.23;;;;;;;21.97;55.39;100569.09;5023975;28;20217;-55
2022/08/23 02:03:54;;;;;;;38.88;29.10;;;;;;;21.82;55.59;100569.91;5025190;28;20026;-54
2022/08/23 02:06:20;;;;;;;37.50;28.75;;;;;;;21.85;55.25;100564.50;5040587;28;20021;-54
2022/08/23 02:09:01;;;;;;;35.60;28.98;;;;;;;21.84;55.72;100573.34;5034030;28;20022;-55
2022/08/23 02:11:33;;;;;;;37.05;27.60;;;;;;;21.93;55.58;100571.97;5060027;28;20095;-55
2022/08/23 02:14:00;;;;;;;38.75;28.25;;;;;;;21.82;55.71;100573.44;5056231;28;20085;-55
2022/08/23 02:16:32;;;;;;;38.33;29.52;;;;;;;21.87;55.74;100583.72;5036102;28;20029;-54
2022/08/23 02:19:01;;;;;;;38.63;27.33;;;;;;;21.89;55.37;100574.78;5044662;28;20025;-54
2022/08/23 02:21:30;;;;;;;34.35;28.50;;;;;;;21.73;56.30;100573.91;5043511;28;20037;-54
2022/08/23 02:24:01;;;;;;;35.97;28.17;;;;;;;21.77;55.87;100578.09;5044747;28;20041;-54
2022/08/23 02:26:27;;;;;;;;;;;;;;;21.79;56.24;100584.16;5026584;28;20030;-54
2022/08/23 02:28:52;;;;;;;40.30;28.52;;;;;;;21.74;56.06;100582.69;5024837;28;19933;-54
2022/08/23 02:31:20;;;;;;;37.20;29.08;;;;;;;21.52;56.21;100547.78;5024567;28;20028;-54
2022/08/23 02:33:47;;;;;;;36.00;28.90;;;;;;;21.78;56.27;100585.06;5062336;28;20093;-53
2022/08/23 02:36:13;;;;;;;42.78;28.20;;;;;;;21.75;56.49;100582.59;5034769;28;20037;-54
2022/08/23 02:38:38;;;;;;;33.00;27.50;;;;;;;21.59;56.67;100577.31;5023667;28;20026;-54
2022/08/23 02:41:04;;;;;;;37.65;29.05;;;;;;;21.66;56.52;100589.22;5023234;28;20105;-54
2022/08/23 02:43:30;;;;;;;35.85;27.30;;;;;;;21.65;56.51;100586.66;5039795;28;20098;-53
2022/08/23 02:45:55;;;;;;;36.88;29.05;;;;;;;21.66;56.40;100594.50;5024368;28;20094;-53
2022/08/23 02:48:21;;;;;;;37.47;28.00;;;;;;;21.62;56.73;100585.03;5024222;28;20314;-53
2022/08/23 02:50:47;;;;;;;36.53;28.35;;;;;;;21.60;57.05;100591.31;5023988;28;20032;-56
2022/08/23 02:53:13;;;;;;;36.17;27.50;;;;;;;21.65;56.90;100595.41;5036007;28;20278;-53
2022/08/23 02:55:38;;;;;;;36.22;27.13;;;;;;;21.57;57.08;100587.06;5051066;28;20033;-53
2022/08/23 02:58:04;;;;;;;33.42;26.38;;;;;;;21.59;57.22;100597.53;5043958;28;20036;-53
2022/08/23 03:00:30;;;;;;;38.05;28.85;;;;;;;21.56;57.20;100590.63;5027430;28;20056;-54
2022/08/23 03:02:56;;;;;;;33.72;26.65;;;;;;;21.59;57.20;100600.16;5024116;28;20097;-55
2022/08/23 03:05:22;;;;;;;37.95;27.60;;;;;;;21.64;57.16;100601.63;5023996;28;20034;-55
2022/08/23 03:07:48;;;;;;;35.67;26.88;;;;;;;21.63;57.22;100599.91;5042766;28;20218;-55
2022/08/23 03:10:15;;;;;;;40.17;27.90;;;;;;;21.59;57.27;100595.75;5043705;28;20053;-55
2022/08/23 03:12:40;;;;;;;34.17;28.23;;;;;;;21.55;57.34;100604.75;5061580;28;20120;-55
2022/08/23 03:15:07;;;;;;;33.75;28.13;;;;;;;21.60;57.54;100612.41;5063269;28;20033;-54
2022/08/23 03:17:32;;;;;;;36.95;27.23;;;;;;;21.53;57.56;100599.56;5043542;28;20092;-54
2022/08/23 03:19:58;;;;;;;35.08;27.40;;;;;;;21.51;57.62;100606.69;5043389;28;20029;-55
2022/08/23 03:22:23;;;;;;;35.55;26.90;;;;;;;21.52;57.67;100616.31;5043613;28;20029;-55
2022/08/23 03:24:49;;;;;;;38.13;27.67;;;;;;;21.53;57.80;100609.25;5038288;28;20250;-54
2022/08/23 03:27:14;;;;;;;35.35;28.10;;;;;;;21.53;57.66;100612.75;5023637;28;20025;-55
2022/08/23 03:29:40;;;;;;;34.38;27.33;;;;;;;21.50;57.94;100593.56;5023517;28;20041;-55
2022/08/23 03:32:06;;;;;;;37.42;28.45;;;;;;;21.56;57.77;100616.97;5023588;28;20041;-55
2022/08/23 03:34:33;;;;;;;38.97;27.70;;;;;;;21.53;57.90;100602.19;5023595;28;20379;-56
2022/08/23 03:36:59;;;;;;;36.45;26.50;;;;;;;21.69;57.47;100617.19;5023700;28;20096;-55
2022/08/23 03:39:25;;;;;;;36.05;27.33;;;;;;;21.68;57.56;100618.16;5023215;28;20315;-54
2022/08/23 03:41:51;;;;;;;35.67;27.75;;;;;;;21.70;57.68;100618.91;5023413;28;20099;-54
2022/08/23 03:44:16;;;;;;;38.28;26.20;;;;;;;21.70;57.80;100625.00;5023435;28;20026;-54
2022/08/23 03:46:42;;;;;;;39.65;27.95;;;;;;;21.74;58.18;100630.16;5026060;28;20022;-55
2022/08/23 03:49:07;;;;;;;34.90;27.23;;;;;;;21.80;57.98;100630.66;5065892;28;20325;-55
2022/08/23 03:51:33;;;;;;;35.42;28.35;;;;;;;21.77;57.79;100627.34;5034052;28;20199;-55
2022/08/23 03:54:00;;;;;;;37.65;27.23;;;;;;;21.85;57.95;100628.63;5027091;28;20150;-54
2022/08/23 03:56:32;;;;;;;35.35;26.55;;;;;;;21.48;58.11;100584.91;5039144;28;20028;-55
2022/08/23 03:59:00;;;;;;;37.58;28.60;;;;;;;21.62;58.14;100598.22;5038269;28;20053;-54
2022/08/23 04:01:26;;;;;;;33.05;26.25;;;;;;;21.80;58.32;100641.22;5034711;28;20075;-55
2022/08/23 04:03:52;;;;;;;34.17;27.77;;;;;;;21.91;58.16;100637.16;5047041;28;20021;-55
2022/08/23 04:06:18;;;;;;;37.00;27.40;;;;;;;21.92;58.18;100642.34;5045457;28;20040;-55
2022/08/23 04:08:44;;;;;;;39.40;28.25;;;;;;;21.98;57.85;100642.03;5046408;28;20029;-54
2022/08/23 04:11:12;;;;;;;39.80;27.75;;;;;;;21.83;58.58;100646.34;5046298;28;20033;-54
2022/08/23 04:13:41;;;;;;;37.00;28.13;;;;;;;21.87;58.44;100653.13;5047520;28;20160;-54
2022/08/23 04:16:07;;;;;;;35.10;27.05;;;;;;;21.97;58.30;100647.38;5053444;28;20304;-56
2022/08/23 04:18:34;;;;;;;36.55;27.20;;;;;;;22.01;58.23;100654.19;5039162;28;20076;-55
2022/08/23 04:21:04;;;;;;;35.63;27.88;;;;;;;21.75;58.47;100601.06;5046151;28;20029;-56
2022/08/23 04:23:30;;;;;;;33.65;26.77;;;;;;;22.19;57.99;100653.22;5046144;28;20017;-55
2022/08/23 04:25:56;;;;;;;37.05;27.45;;;;;;;22.17;58.51;100652.41;5044241;28;20049;-56
2022/08/23 04:28:22;;;;;;;37.20;27.98;;;;;;;22.21;58.37;100658.41;5046161;28;20029;-56
2022/08/23 04:30:50;;;;;;;39.65;28.58;;;;;;;22.25;58.07;100654.66;5043982;28;20100;-56
2022/08/23 04:33:16;;;;;;;35.83;27.77;;;;;;;22.30;58.19;100654.41;5069915;28;20246;-55
2022/08/23 04:35:41;;;;;;;37.72;27.77;;;;;;;22.37;58.33;100661.91;5044329;28;20071;-55
2022/08/23 04:38:07;;;;;;;42.53;27.80;;;;;;;22.49;57.45;100655.13;5043962;28;20034;-56
2022/08/23 04:43:24;;;;;;;44.67;29.05;;;;;;;22.48;57.45;100661.34;5023057;28;20261;-55
2022/08/23 04:45:50;;;;;;;35.92;25.50;;;;;;;22.60;57.36;100654.50;5045685;28;20049;-56
2022/08/23 04:48:16;;;;;;;34.38;26.50;;;;;;;22.59;57.68;100660.75;5044121;28;20021;-55
2022/08/23 04:50:41;;;;;;;35.83;26.33;;;;;;;22.69;57.52;100659.28;5044053;28;20330;-55
2022/08/23 04:53:07;;;;;;;42.25;27.50;;;;;;;22.66;57.74;100658.59;5046095;28;20028;-55
2022/08/23 04:55:33;;;;;;;32.45;26.15;;;;;;;22.67;58.04;100668.22;5045713;28;20088;-55
2022/08/23 04:57:58;;;;;;;34.45;26.15;;;;;;;22.77;57.82;100666.75;5040162;28;20075;-56
2022/08/23 05:00:24;;;;;;;34.67;26.38;;;;;;;22.85;57.76;100659.25;5044607;28;20025;-55
2022/08/23 05:02:49;;;;;;;35.28;25.65;;;;;;;22.89;57.50;100663.44;5045177;28;20124;-56
2022/08/23 05:05:15;;;;;;;34.45;26.13;;;;;;;22.97;57.67;100659.50;5045588;28;20029;-55
2022/08/23 05:07:41;;;;;;;37.53;24.10;;;;;;;23.08;56.83;100659.72;5045642;28;20029;-55
2022/08/23 05:10:11;;;;;;;36.95;24.70;;;;;;;22.75;57.26;100618.47;5044294;28;20245;-55
2022/08/23 05:12:37;;;;;;;32.42;24.88;;;;;;;23.06;57.45;100666.91;5043944;28;20302;-55
2022/08/23 05:15:03;;;;;;;31.55;22.88;;;;;;;23.16;56.67;100669.88;5044827;28;20089;-55
2022/08/23 05:17:29;;;;;;;32.25;23.45;;;;;;;23.13;56.65;100670.06;5045207;28;20075;-55
2022/08/23 05:19:54;;;;;;;30.33;22.50;;;;;;;23.17;56.60;100677.72;5044886;28;20242;-55
2022/08/23 05:22:20;;;;;;;31.35;23.33;;;;;;;23.36;56.21;100666.06;5045313;28;20032;-56
2022/08/23 05:24:46;;;;;;;26.63;21.50;;;;;;;23.41;56.54;100671.94;5045264;28;20264;-56
2022/08/23 05:27:11;;;;;;;34.70;22.73;;;;;;;23.34;56.17;100670.59;5044956;28;20026;-55
2022/08/23 05:29:37;;;;;;;30.38;21.58;;;;;;;23.57;55.64;100677.16;5041635;28;20097;-55
2022/08/23 05:32:03;;;;;;;26.30;21.85;;;;;;;23.59;55.59;100667.34;5044906;28;20341;-55
2022/08/23 05:34:29;;;;;;;31.60;20.73;;;;;;;23.54;55.17;100669.41;5044993;28;20330;-56
2022/08/23 05:36:54;;;;;;;25.63;20.80;;;;;;;23.56;55.74;100678.94;5043763;28;20026;-55
2022/08/23 05:39:20;;;;;;;34.97;23.10;;;;;;;23.74;55.64;100679.66;5043541;28;20021;-55
2022/08/23 05:41:46;;;;;;;24.55;19.98;;;;;;;23.93;55.17;100671.44;5041790;28;20021;-55
2022/08/23 05:44:12;;;;;;;26.00;21.05;;;;;;;23.84;54.41;100677.25;5043253;28;20025;-55
2022/08/23 05:46:38;;;;;;;29.52;22.13;;;;;;;23.99;54.76;100677.31;5039753;28;20041;-56
2022/08/23 05:49:04;;;;;;;31.27;21.17;;;;;;;24.07;54.30;100678.53;5044205;28;20029;-57
2022/08/23 05:51:32;;;;;;;30.60;22.27;;;;;;;24.08;54.57;100676.75;5042572;28;20100;-56
2022/08/23 05:54:02;;;;;;;26.85;21.10;;;;;;;23.92;54.24;100643.28;5044536;28;20040;-56
2022/08/23 05:56:34;;;;;;;31.23;21.88;;;;;;;23.90;53.90;100639.91;5042199;28;20037;-57
2022/08/23 05:59:05;;;;;;;30.35;20.95;;;;;;;24.28;54.07;100696.66;5040715;28;20128;-56
2022/08/23 06:01:31;;;;;;;29.02;20.33;;;;;;;24.38;54.00;100681.91;5042436;28;20025;-56
2022/08/23 06:04:03;;;;;;;31.35;21.10;;;;;;;24.10;54.26;100637.81;5042351;28;20064;-56
2022/08/23 06:06:30;;;;;;;31.65;20.40;;;;;;;24.29;53.89;100685.97;5042137;28;20146;-56
2022/08/23 06:08:55;;;;;;;34.08;20.55;;;;;;;24.31;53.87;100691.19;5044132;28;20173;-56
2022/08/23 06:11:24;;;;;;;24.70;19.33;;;;;;;24.29;54.01;100648.91;5044908;28;20057;-56
2022/08/23 06:13:53;;;;;;;23.55;20.40;;;;;;;24.22;53.64;100652.06;5045123;28;20052;-56
2022/08/23 06:16:25;;;;;;;35.30;21.20;;;;;;;24.58;53.41;100693.88;5052956;28;20025;-57
2022/08/23 06:18:52;;;;;;;30.20;20.63;;;;;;;24.61;53.68;100687.56;5043960;28;20025;-57
2022/08/23 06:21:18;;;;;;;25.60;20.25;;;;;;;24.66;53.21;100695.22;5040339;28;20306;-57
2022/08/23 06:23:48;;;;;;;27.27;20.88;;;;;;;24.75;53.29;100700.75;5045795;28;20021;-57
2022/08/23 06:26:21;;;;;;;27.50;19.45;;;;;;;24.83;52.91;100702.06;5039662;28;20037;-57
2022/08/23 06:28:50;;;;;;;25.80;18.83;;;;;;;24.70;52.37;100667.56;5043539;28;20052;-56
2022/08/23 06:31:43;;;;;;;29.35;20.13;;;;;;;24.98;52.75;100704.59;5024493;28;20153;-56
2022/08/23 06:34:02;;;;;;;24.70;20.35;;;;;;;24.77;52.25;100672.38;5033998;28;20053;-56
2022/08/23 06:36:27;;;;;;;29.13;20.30;;;;;;;25.08;52.11;100701.31;5042723;28;20028;-56
2022/08/23 06:38:53;;;;;;;28.30;21.52;;;;;;;25.07;52.31;100707.56;5035315;28;20026;-56
2022/08/23 06:41:19;;;;;;;27.00;21.42;;;;;;;25.13;52.38;100707.16;5039326;28;20060;-56
2022/08/23 06:43:45;;;;;;;35.28;21.60;;;;;;;25.04;52.47;100707.75;5025028;28;20033;-57
2022/08/23 06:46:17;;;;;;;28.58;20.35;;;;;;;25.15;52.58;100713.22;5051789;28;20322;-56
2022/08/23 06:48:43;;;;;;;26.23;20.63;;;;;;;25.29;52.30;100715.78;5026092;28;20035;-58
2022/08/23 06:51:20;;;;;;;28.77;20.45;;;;;;;25.15;52.04;100668.13;5044176;28;20021;-58
2022/08/23 06:53:45;;;;;;;30.88;20.20;;;;;;;25.52;51.87;100704.63;5040168;28;20341;-56
2022/08/23 06:56:11;;;;;;;29.50;20.35;;;;;;;25.47;52.01;100708.44;5039381;28;20033;-56
2022/08/23 06:58:37;;;;;;;27.13;19.88;;;;;;;25.66;51.92;100718.63;5041659;28;20025;-57
2022/08/23 07:01:35;;;;;;;26.80;19.65;;;;;;;25.79;51.74;100716.00;5039138;28;20336;-56
2022/08/23 07:04:02;;;;;;;28.23;20.85;;;;;;;25.87;51.53;100714.59;5036644;28;20045;-56
2022/08/23 07:06:29;;;;;;;32.30;22.33;;;;;;;25.83;51.65;100714.81;5039053;28;20088;-57
2022/08/23 07:08:55;;;;;;;30.75;21.95;;;;;;;25.97;51.07;100713.03;5034614;28;20104;-58
2022/08/23 07:11:21;;;;;;;26.83;21.98;;;;;;;26.00;51.02;100713.69;5036625;28;20025;-58
2022/08/23 07:13:47;;;;;;;27.50;19.95;;;;;;;26.06;50.41;100708.91;5042563;28;20074;-58
2022/08/23 07:16:16;;;;;;;30.52;21.33;;;;;;;26.07;50.16;100716.78;5039112;28;20033;-57
2022/08/23 07:18:44;;;;;;;29.50;21.75;;;;;;;26.21;50.27;100707.84;5038726;28;20017;-57
2022/08/23 07:21:11;;;;;;;29.85;20.80;;;;;;;26.43;50.08;100725.75;5040935;28;20310;-58
2022/08/23 07:23:38;;;;;;;33.97;21.35;;;;;;;26.41;49.78;100730.31;5037182;28;20314;-56
2022/08/23 07:26:10;;;;;;;25.88;20.30;;;;;;;26.60;50.15;100724.53;5039493;28;20033;-56
2022/08/23 07:28:35;;;;;;;;;;;;;;;26.66;49.79;100724.06;5041024;28;20025;-56
2022/08/23 07:31:29;;;;;;;25.10;18.90;;;;;;;26.74;48.73;100725.38;5042107;28;20146;-57
2022/08/23 07:33:58;;;;;;;28.77;20.35;;;;;;;26.43;49.14;100682.41;5041296;28;20207;-56
2022/08/23 07:36:25;;;;;;;27.38;19.42;;;;;;;26.74;48.33;100720.91;5042053;28;20029;-56
2022/08/23 07:38:52;;;;;;;26.25;18.38;;;;;;;26.85;48.48;100720.09;5042218;28;20028;-56
2022/08/23 07:41:19;;;;;;;24.27;17.73;;;;;;;27.02;48.50;100722.38;5041884;28;20041;-56
2022/08/23 07:43:45;;;;;;;27.98;19.08;;;;;;;27.05;48.03;100723.97;5042743;28;20059;-57
2022/08/23 07:46:12;;;;;;;26.73;17.58;;;;;;;26.75;47.80;100684.53;5042286;28;20021;-56
2022/08/23 07:48:38;;;;;;;21.17;16.35;;;;;;;27.13;47.94;100720.72;5042277;28;20101;-56
2022/08/23 07:51:11;;;;;;;24.70;16.73;;;;;;;27.20;47.83;100724.63;5042803;28;20356;-57
2022/08/23 07:53:37;;;;;;;23.38;16.77;;;;;;;27.33;47.30;100714.75;5040294;28;20033;-56
2022/08/23 07:56:08;;;;;;;22.98;15.95;;;;;;;27.12;47.11;100676.47;5039005;28;20026;-56
2022/08/23 07:58:34;;;;;;;21.95;15.90;;;;;;;27.33;46.89;100722.72;5042887;28;20040;-56
2022/08/23 08:01:17;;;;;;;23.63;15.52;;;;;;;27.24;46.76;100701.31;5024703;28;20026;-55
2022/08/23 08:03:45;;;;;;;21.08;15.88;;;;;;;27.26;46.33;100688.75;5055006;28;20082;-56
2022/08/23 08:06:14;;;;;;;19.63;15.02;;;;;;;27.40;46.49;100688.56;5051335;28;20017;-56
2022/08/23 08:08:41;;;;;;;18.65;14.52;;;;;;;27.71;46.02;100719.00;5050157;28;20028;-55
2022/08/23 08:11:12;;;;;;;22.95;15.13;;;;;;;27.71;45.80;100731.47;5059984;28;20450;-56
2022/08/23 08:13:42;;;;;;;20.73;14.55;;;;;;;27.88;44.88;100722.19;5042970;28;20135;-56
2022/08/23 08:16:09;;;;;;;24.60;15.35;;;;;;;27.76;45.95;100683.19;5041596;28;20056;-57
2022/08/23 08:18:36;;;;;;;20.00;16.40;;;;;;;28.14;45.32;100729.97;5042768;28;20210;-57
2022/08/23 08:21:03;;;;;;;23.67;15.95;;;;;;;28.16;44.59;100726.22;5042521;28;20030;-56
2022/08/23 08:23:29;;;;;;;20.90;14.85;;;;;;;28.25;44.68;100724.66;5041226;28;20078;-56
2022/08/23 08:26:03;;;;;;;23.95;14.95;;;;;;;28.12;44.34;100687.47;5041498;28;20029;-56
2022/08/23 08:28:29;;;;;;;18.88;14.73;;;;;;;28.37;44.64;100723.66;5023139;28;20026;-57
2022/08/23 08:30:56;;;;;;;19.52;14.80;;;;;;;28.53;44.39;100725.09;5040481;28;20096;-56
2022/08/23 08:33:22;;;;;;;23.05;14.68;;;;;;;28.20;43.88;100687.69;5045275;28;20241;-56
2022/08/23 08:35:49;;;;;;;20.77;15.13;;;;;;;28.28;43.65;100684.44;5032811;28;20093;-57
2022/08/23 08:38:14;;;;;;;21.88;14.65;;;;;;;28.53;44.35;100717.09;5043064;28;20092;-57
2022/08/23 08:40:41;;;;;;;20.70;14.15;;;;;;;28.58;44.54;100709.56;5026948;28;20223;-57
2022/08/23 08:43:17;;;;;;;20.10;14.98;;;;;;;28.75;44.42;100727.72;5045264;28;20029;-57
2022/08/23 08:46:06;;;;;;;19.75;14.43;;;;;;;28.74;43.33;100718.03;5046324;28;20034;-56
2022/08/23 08:48:43;;;;;;;16.98;14.50;;;;;;;28.69;43.68;100674.06;5045995;28;20049;-57
2022/08/23 08:51:30;;;;;;;22.02;15.35;;;;;;;28.92;42.83;100685.50;5046177;28;20021;-56
2022/08/23 08:53:58;;;;;;;15.10;13.48;;;;;;;29.31;42.40;100717.84;5046289;28;20043;-56
2022/08/23 08:56:31;;;;;;;17.77;14.30;;;;;;;29.27;41.81;100673.72;5050703;28;20104;-56
2022/08/23 08:59:05;;;;;;;20.00;14.60;;;;;;;29.69;42.07;100718.25;5066038;28;20233;-56
2022/08/23 09:01:34;;;;;;;18.02;14.57;;;;;;;29.65;41.89;100711.47;5065908;28;20039;-56
2022/08/23 09:03:59;;;;;;;16.63;14.38;;;;;;;29.85;41.34;100709.78;5065345;28;20221;-57
2022/08/23 09:06:25;;;;;;;20.15;14.20;;;;;;;29.99;42.01;100717.44;5039652;28;20347;-56
2022/08/23 09:09:20;;;;;;;20.90;14.52;;;;;;;30.11;40.65;100704.84;5042442;28;20029;-57
2022/08/23 09:12:24;;;;;;;21.40;14.88;;;;;;;30.33;40.66;100714.50;5049903;28;20057;-57
2022/08/23 09:15:04;;;;;;;20.45;14.63;;;;;;;30.24;40.77;100700.13;5023893;28;20046;-58
2022/08/23 09:17:34;;;;;;;21.33;15.63;;;;;;;30.57;40.18;100706.13;5055730;28;20041;-57
2022/08/23 09:20:03;;;;;;;23.63;14.45;;;;;;;30.51;40.02;100671.91;5043562;28;20330;-58
2022/08/23 09:22:39;;;;;;;19.98;13.30;;;;;;;30.63;38.33;100670.81;5045061;28;20040;-57
2022/08/23 09:25:08;;;;;;;17.98;13.07;;;;;;;30.62;39.50;100661.09;5045933;28;20032;-58
2022/08/23 09:27:35;;;;;;;18.45;13.43;;;;;;;30.51;39.62;100658.53;5046197;28;20040;-57
2022/08/23 09:30:01;;;;;;;19.35;13.50;;;;;;;30.86;38.83;100699.97;5046102;28;20093;-57
2022/08/23 09:32:29;;;;;;;18.85;13.02;;;;;;;30.58;37.82;100678.38;5046407;28;20041;-56
2022/08/23 09:35:16;;;;;;;16.75;12.43;;;;;;;30.27;38.53;100649.06;5045292;28;20033;-57
2022/08/23 09:38:02;;;;;;;18.02;11.27;;;;;;;30.69;37.17;100695.31;5045044;28;20018;-57
2022/08/23 09:40:43;;;;;;;14.15;11.52;;;;;;;30.78;37.07;100692.66;5043059;28;20045;-57
2022/08/23 09:43:13;;;;;;;13.63;12.07;;;;;;;30.75;37.47;100676.88;5045874;28;20076;-57
2022/08/23 09:45:49;;;;;;;15.75;11.90;;;;;;;30.44;36.93;100650.25;5043446;28;20025;-57
2022/08/23 09:48:39;;;;;;;16.45;11.43;;;;;;;30.53;36.54;100653.06;5042465;28;20036;-57
2022/08/23 09:51:43;;;;;;;16.17;10.30;;;;;;;30.70;35.77;100694.31;5042933;28;20071;-57
2022/08/23 09:54:18;;;;;;;13.27;10.32;;;;;;;30.45;35.01;100648.41;5022919;28;20214;-56
2022/08/23 09:56:56;;;;;;;12.68;10.30;;;;;;;30.49;36.79;100671.22;5021884;28;20053;-58
2022/08/23 09:59:38;;;;;;;12.95;10.55;;;;;;;30.37;35.87;100651.75;5022246;28;20110;-57
2022/08/23 10:02:05;;;;;;;11.18;9.98;;;;;;;30.70;35.67;100694.31;5021685;28;20029;-57
2022/08/23 10:04:36;;;;;;;18.23;11.00;;;;;;;30.50;36.60;100690.78;5022715;28;20075;-57
2022/08/23 10:07:38;;;;;;;14.48;11.32;;;;;;;30.57;36.14;100700.78;5022438;28;20026;-56
2022/08/23 10:10:13;;;;;;;13.10;9.98;;;;;;;30.63;35.68;100694.03;5000826;28;20076;-55
2022/08/23 10:12:38;;;;;;;12.32;10.23;;;;;;;30.61;35.65;100691.50;5011497;28;20034;-57
2022/08/23 10:15:05;;;;;;;11.32;9.20;;;;;;;30.61;35.34;100683.50;5032473;28;20033;-58
2022/08/23 10:17:40;;;;;;;15.93;10.60;;;;;;;30.41;35.37;100650.50;5022703;28;20034;-56
2022/08/23 10:20:29;;;;;;;15.38;9.90;;;;;;;30.64;35.40;100690.38;5021531;28;20033;-57
2022/08/23 10:23:14;;;;;;;13.02;10.77;;;;;;;30.60;35.13;100694.31;5020783;28;20029;-57
2022/08/23 10:25:57;;;;;;;12.40;9.77;;;;;;;30.46;35.82;100658.13;5037330;28;20108;-56
2022/08/23 10:31:58;;;;;;;14.90;10.70;;;;;;;30.55;36.25;100685.88;5044046;28;20021;-57
2022/08/23 10:34:37;;;;;;;12.02;10.40;;;;;;;30.55;36.43;100684.03;5037755;28;20061;-56
2022/08/23 10:37:27;;;;;;;13.70;10.00;;;;;;;30.56;36.52;100684.88;5042665;28;20021;-57
2022/08/23 10:40:20;;;;;;;13.75;10.43;;;;;;;30.37;36.09;100667.78;5042591;28;20064;-56
2022/08/23 10:43:24;;;;;;;11.07;9.73;;;;;;;30.28;37.04;100681.97;5044411;28;20037;-57
2022/08/23 10:45:51;;;;;;;16.42;10.40;;;;;;;30.34;35.97;100686.75;5042713;28;20029;-57
2022/08/23 10:48:27;;;;;;;14.63;9.25;;;;;;;30.24;35.99;100659.16;5041638;28;20033;-55
2022/08/23 10:50:57;;;;;;;11.50;9.38;;;;;;;30.39;36.05;100673.84;5040841;28;20311;-56
2022/08/23 10:53:47;;;;;;;12.27;9.73;;;;;;;30.45;36.61;100696.53;5043461;28;20064;-55
2022/08/23 10:56:19;;;;;;;14.85;9.85;;;;;;;30.23;36.37;100654.78;5042166;28;20080;-56
2022/08/23 10:59:16;;;;;;;13.38;10.25;;;;;;;30.18;38.18;100678.44;5042624;28;20321;-56
2022/08/23 11:02:03;;;;;;;11.43;9.23;;;;;;;30.27;35.27;100681.13;5043329;28;20101;-57
2022/08/23 11:04:32;;;;;;;12.82;8.93;;;;;;;30.30;36.87;100693.38;5040937;28;20025;-57
2022/08/23 11:07:00;;;;;;;11.07;8.63;;;;;;;30.33;35.37;100693.09;5042256;28;20029;-56
2022/08/23 11:09:26;;;;;;;12.45;8.93;;;;;;;30.47;35.08;100689.22;5042029;28;20040;-56
2022/08/23 11:12:24;;;;;;;11.40;8.20;;;;;;;30.61;35.39;100685.28;5041902;28;20013;-55
2022/08/23 11:14:56;;;;;;;13.65;9.23;;;;;;;30.55;35.73;100691.22;5040439;28;20088;-56
2022/08/23 11:17:48;;;;;;;11.40;8.55;;;;;;;30.48;34.80;100696.25;5041701;28;20025;-56
2022/08/23 11:20:48;;;;;;;8.32;7.53;;;;;;;30.51;34.86;100692.47;5039826;28;20133;-55
2022/08/23 11:23:33;;;;;;;12.93;8.27;;;;;;;30.51;34.64;100676.41;5041540;28;20326;-54
2022/08/23 11:26:00;;;;;;;10.65;7.80;;;;;;;30.66;34.67;100685.75;5040661;28;20053;-55
2022/08/23 11:28:25;;;;;;;9.38;8.38;;;;;;;30.85;35.12;100681.38;5042272;28;20029;-56
2022/08/23 11:30:56;;;;;;;10.50;8.73;;;;;;;30.87;34.93;100682.06;5040356;28;20024;-55
2022/08/23 11:33:33;;;;;;;11.77;7.97;;;;;;;30.98;34.55;100687.28;5034406;28;20030;-56
2022/08/23 11:36:23;;;;;;;9.35;7.40;;;;;;;30.93;33.41;100685.03;5041084;28;20041;-57
2022/08/23 11:38:49;;;;;;;9.25;7.38;;;;;;;31.14;33.20;100689.41;5044092;28;20128;-55